sensor_id;sensor_type;location;lat;lon;timestamp;P1;durP1;ratioP1;P2;durP2;ratioP2
46407;SDS011;32110;45.724;21.276;2022-07-21T00:01:13;14.43;;;4.85;;
46407;SDS011;32110;45.724;21.276;2022-07-21T00:03:38;16.52;;;4.53;;
46407;SDS011;32110;45.724;21.276;2022-07-21T00:06:04;17.13;;;4.32;;
46407;SDS011;32110;45.724;21.276;2022-07-21T00:08:29;20.13;;;4.45;;
46407;SDS011;32110;45.724;21.276;2022-07-21T00:10:55;15.13;;;4.20;;
46407;SDS011;32110;45.724;21.276;2022-07-21T00:13:20;15.32;;;4.43;;
46407;SDS011;32110;45.724;21.276;2022-07-21T00:15:46;15.83;;;5.80;;
46407;SDS011;32110;45.724;21.276;2022-07-21T00:18:11;12.13;;;4.20;;
46407;SDS011;32110;45.724;21.276;2022-07-21T00:20:38;18.13;;;4.68;;
46407;SDS011;32110;45.724;21.276;2022-07-21T00:23:03;13.07;;;4.30;;
46407;SDS011;32110;45.724;21.276;2022-07-21T00:25:28;12.65;;;4.63;;
46407;SDS011;32110;45.724;21.276;2022-07-21T00:27:54;15.45;;;4.80;;
46407;SDS011;32110;45.724;21.276;2022-07-21T00:30:20;17.83;;;4.22;;
46407;SDS011;32110;45.724;21.276;2022-07-21T00:32:46;18.98;;;4.80;;
46407;SDS011;32110;45.724;21.276;2022-07-21T00:35:11;17.30;;;4.23;;
46407;SDS011;32110;45.724;21.276;2022-07-21T00:37:37;20.13;;;4.25;;
46407;SDS011;32110;45.724;21.276;2022-07-21T00:40:04;10.85;;;4.30;;
46407;SDS011;32110;45.724;21.276;2022-07-21T00:42:30;18.17;;;4.50;;
46407;SDS011;32110;45.724;21.276;2022-07-21T00:44:57;12.90;;;3.83;;
46407;SDS011;32110;45.724;21.276;2022-07-21T00:47:24;7.72;;;3.20;;
46407;SDS011;32110;45.724;21.276;2022-07-21T00:49:53;10.60;;;3.70;;
46407;SDS011;32110;45.724;21.276;2022-07-21T00:52:19;7.32;;;3.40;;
46407;SDS011;32110;45.724;21.276;2022-07-21T00:54:45;10.07;;;3.22;;
46407;SDS011;32110;45.724;21.276;2022-07-21T00:57:12;11.05;;;3.60;;
46407;SDS011;32110;45.724;21.276;2022-07-21T00:59:39;10.43;;;3.00;;
46407;SDS011;32110;45.724;21.276;2022-07-21T01:02:05;16.33;;;2.90;;
46407;SDS011;32110;45.724;21.276;2022-07-21T01:04:32;8.32;;;2.97;;
46407;SDS011;32110;45.724;21.276;2022-07-21T01:06:57;9.10;;;3.08;;
46407;SDS011;32110;45.724;21.276;2022-07-21T01:09:25;11.57;;;2.83;;
46407;SDS011;32110;45.724;21.276;2022-07-21T01:11:51;11.63;;;3.00;;
46407;SDS011;32110;45.724;21.276;2022-07-21T01:14:17;11.15;;;2.80;;
46407;SDS011;32110;45.724;21.276;2022-07-21T01:16:42;7.28;;;3.00;;
46407;SDS011;32110;45.724;21.276;2022-07-21T01:19:08;6.80;;;3.10;;
46407;SDS011;32110;45.724;21.276;2022-07-21T01:21:35;7.40;;;2.80;;
46407;SDS011;32110;45.724;21.276;2022-07-21T01:24:02;10.50;;;3.17;;
46407;SDS011;32110;45.724;21.276;2022-07-21T01:26:29;7.80;;;2.97;;
46407;SDS011;32110;45.724;21.276;2022-07-21T01:28:56;10.30;;;2.95;;
46407;SDS011;32110;45.724;21.276;2022-07-21T01:31:21;12.40;;;2.72;;
46407;SDS011;32110;45.724;21.276;2022-07-21T01:33:47;8.88;;;2.97;;
46407;SDS011;32110;45.724;21.276;2022-07-21T01:36:13;7.15;;;2.63;;
46407;SDS011;32110;45.724;21.276;2022-07-21T01:38:39;5.85;;;2.80;;
46407;SDS011;32110;45.724;21.276;2022-07-21T01:41:23;11.07;;;3.17;;
46407;SDS011;32110;45.724;21.276;2022-07-21T01:43:58;6.00;;;2.88;;
46407;SDS011;32110;45.724;21.276;2022-07-21T01:46:26;12.45;;;2.75;;
46407;SDS011;32110;45.724;21.276;2022-07-21T01:48:52;7.05;;;3.33;;
46407;SDS011;32110;45.724;21.276;2022-07-21T01:51:17;10.40;;;3.20;;
46407;SDS011;32110;45.724;21.276;2022-07-21T01:53:42;7.23;;;2.77;;
46407;SDS011;32110;45.724;21.276;2022-07-21T01:56:08;6.88;;;3.10;;
46407;SDS011;32110;45.724;21.276;2022-07-21T01:58:33;9.18;;;3.33;;
46407;SDS011;32110;45.724;21.276;2022-07-21T02:00:59;5.07;;;2.90;;
46407;SDS011;32110;45.724;21.276;2022-07-21T02:03:24;10.25;;;3.10;;
46407;SDS011;32110;45.724;21.276;2022-07-21T02:05:50;6.68;;;2.95;;
46407;SDS011;32110;45.724;21.276;2022-07-21T02:08:15;10.75;;;3.20;;
46407;SDS011;32110;45.724;21.276;2022-07-21T02:10:40;10.00;;;3.20;;
46407;SDS011;32110;45.724;21.276;2022-07-21T02:13:06;9.70;;;3.08;;
46407;SDS011;32110;45.724;21.276;2022-07-21T02:15:31;5.47;;;2.92;;
46407;SDS011;32110;45.724;21.276;2022-07-21T02:17:57;7.07;;;3.10;;
46407;SDS011;32110;45.724;21.276;2022-07-21T02:20:23;7.22;;;3.15;;
46407;SDS011;32110;45.724;21.276;2022-07-21T02:22:50;10.50;;;3.00;;
46407;SDS011;32110;45.724;21.276;2022-07-21T02:25:16;10.32;;;3.20;;
46407;SDS011;32110;45.724;21.276;2022-07-21T02:27:42;12.63;;;3.15;;
46407;SDS011;32110;45.724;21.276;2022-07-21T02:30:07;9.30;;;3.10;;
46407;SDS011;32110;45.724;21.276;2022-07-21T02:32:33;6.53;;;2.78;;
46407;SDS011;32110;45.724;21.276;2022-07-21T02:34:58;9.88;;;3.08;;
46407;SDS011;32110;45.724;21.276;2022-07-21T02:37:24;8.67;;;3.33;;
46407;SDS011;32110;45.724;21.276;2022-07-21T02:39:49;9.30;;;3.40;;
46407;SDS011;32110;45.724;21.276;2022-07-21T02:42:14;7.55;;;3.15;;
46407;SDS011;32110;45.724;21.276;2022-07-21T02:44:40;8.77;;;3.05;;
46407;SDS011;32110;45.724;21.276;2022-07-21T02:47:05;5.60;;;2.83;;
46407;SDS011;32110;45.724;21.276;2022-07-21T02:49:31;8.90;;;3.10;;
46407;SDS011;32110;45.724;21.276;2022-07-21T02:51:56;6.55;;;3.55;;
46407;SDS011;32110;45.724;21.276;2022-07-21T02:54:21;12.00;;;3.50;;
46407;SDS011;32110;45.724;21.276;2022-07-21T02:56:47;11.65;;;3.58;;
46407;SDS011;32110;45.724;21.276;2022-07-21T02:59:12;11.93;;;3.10;;
46407;SDS011;32110;45.724;21.276;2022-07-21T03:01:38;6.32;;;3.20;;
46407;SDS011;32110;45.724;21.276;2022-07-21T03:04:03;8.60;;;3.40;;
46407;SDS011;32110;45.724;21.276;2022-07-21T03:06:28;9.50;;;4.22;;
46407;SDS011;32110;45.724;21.276;2022-07-21T03:08:54;9.57;;;3.50;;
46407;SDS011;32110;45.724;21.276;2022-07-21T03:11:19;8.30;;;3.30;;
46407;SDS011;32110;45.724;21.276;2022-07-21T03:13:45;8.87;;;3.20;;
46407;SDS011;32110;45.724;21.276;2022-07-21T03:16:10;6.35;;;3.47;;
46407;SDS011;32110;45.724;21.276;2022-07-21T03:18:35;7.35;;;3.35;;
46407;SDS011;32110;45.724;21.276;2022-07-21T03:21:01;7.15;;;3.55;;
46407;SDS011;32110;45.724;21.276;2022-07-21T03:23:26;10.85;;;3.80;;
46407;SDS011;32110;45.724;21.276;2022-07-21T03:25:52;17.05;;;3.83;;
46407;SDS011;32110;45.724;21.276;2022-07-21T03:28:17;8.63;;;3.60;;
46407;SDS011;32110;45.724;21.276;2022-07-21T03:30:43;6.53;;;3.20;;
46407;SDS011;32110;45.724;21.276;2022-07-21T03:33:08;13.00;;;4.10;;
46407;SDS011;32110;45.724;21.276;2022-07-21T03:35:33;8.87;;;3.70;;
46407;SDS011;32110;45.724;21.276;2022-07-21T03:38:01;7.70;;;3.42;;
46407;SDS011;32110;45.724;21.276;2022-07-21T03:40:28;12.15;;;3.70;;
46407;SDS011;32110;45.724;21.276;2022-07-21T03:42:56;18.20;;;4.53;;
46407;SDS011;32110;45.724;21.276;2022-07-21T03:45:23;15.45;;;3.90;;
46407;SDS011;32110;45.724;21.276;2022-07-21T03:47:50;9.35;;;3.67;;
46407;SDS011;32110;45.724;21.276;2022-07-21T03:50:16;12.00;;;3.90;;
46407;SDS011;32110;45.724;21.276;2022-07-21T03:52:43;8.98;;;3.63;;
46407;SDS011;32110;45.724;21.276;2022-07-21T03:55:08;8.85;;;3.30;;
46407;SDS011;32110;45.724;21.276;2022-07-21T03:57:37;11.10;;;3.53;;
46407;SDS011;32110;45.724;21.276;2022-07-21T04:00:06;14.25;;;4.45;;
46407;SDS011;32110;45.724;21.276;2022-07-21T04:02:32;10.38;;;3.97;;
46407;SDS011;32110;45.724;21.276;2022-07-21T04:04:57;11.25;;;4.40;;
46407;SDS011;32110;45.724;21.276;2022-07-21T04:07:23;11.38;;;4.70;;
46407;SDS011;32110;45.724;21.276;2022-07-21T04:09:48;13.50;;;4.57;;
46407;SDS011;32110;45.724;21.276;2022-07-21T04:12:13;22.07;;;4.50;;
46407;SDS011;32110;45.724;21.276;2022-07-21T04:14:38;12.07;;;4.03;;
46407;SDS011;32110;45.724;21.276;2022-07-21T04:17:04;12.60;;;3.57;;
46407;SDS011;32110;45.724;21.276;2022-07-21T04:19:29;16.60;;;4.05;;
46407;SDS011;32110;45.724;21.276;2022-07-21T04:21:55;14.45;;;3.70;;
46407;SDS011;32110;45.724;21.276;2022-07-21T04:24:20;19.00;;;4.18;;
46407;SDS011;32110;45.724;21.276;2022-07-21T04:26:45;11.27;;;3.97;;
46407;SDS011;32110;45.724;21.276;2022-07-21T04:29:11;17.25;;;4.05;;
46407;SDS011;32110;45.724;21.276;2022-07-21T04:31:36;18.50;;;4.95;;
46407;SDS011;32110;45.724;21.276;2022-07-21T04:34:02;22.98;;;4.35;;
46407;SDS011;32110;45.724;21.276;2022-07-21T04:36:27;34.55;;;5.65;;
46407;SDS011;32110;45.724;21.276;2022-07-21T04:38:53;20.92;;;4.53;;
46407;SDS011;32110;45.724;21.276;2022-07-21T04:41:19;19.08;;;4.03;;
46407;SDS011;32110;45.724;21.276;2022-07-21T04:43:44;17.73;;;4.38;;
46407;SDS011;32110;45.724;21.276;2022-07-21T04:46:09;18.47;;;4.07;;
46407;SDS011;32110;45.724;21.276;2022-07-21T04:48:35;10.77;;;3.67;;
46407;SDS011;32110;45.724;21.276;2022-07-21T04:51:00;17.58;;;4.18;;
46407;SDS011;32110;45.724;21.276;2022-07-21T04:53:26;9.82;;;4.03;;
46407;SDS011;32110;45.724;21.276;2022-07-21T04:55:51;15.10;;;4.13;;
46407;SDS011;32110;45.724;21.276;2022-07-21T04:58:16;22.42;;;6.70;;
46407;SDS011;32110;45.724;21.276;2022-07-21T05:00:42;12.48;;;5.00;;
46407;SDS011;32110;45.724;21.276;2022-07-21T05:03:07;13.65;;;4.97;;
46407;SDS011;32110;45.724;21.276;2022-07-21T05:05:33;20.52;;;4.63;;
46407;SDS011;32110;45.724;21.276;2022-07-21T05:07:58;21.65;;;5.63;;
46407;SDS011;32110;45.724;21.276;2022-07-21T05:10:23;11.73;;;3.93;;
46407;SDS011;32110;45.724;21.276;2022-07-21T05:12:49;17.35;;;4.00;;
46407;SDS011;32110;45.724;21.276;2022-07-21T05:15:15;9.82;;;3.55;;
46407;SDS011;32110;45.724;21.276;2022-07-21T05:17:41;14.93;;;3.80;;
46407;SDS011;32110;45.724;21.276;2022-07-21T05:20:07;17.83;;;4.30;;
46407;SDS011;32110;45.724;21.276;2022-07-21T05:22:34;16.95;;;3.80;;
46407;SDS011;32110;45.724;21.276;2022-07-21T05:25:00;12.23;;;4.60;;
46407;SDS011;32110;45.724;21.276;2022-07-21T05:27:25;13.65;;;4.40;;
46407;SDS011;32110;45.724;21.276;2022-07-21T05:29:50;16.98;;;4.25;;
46407;SDS011;32110;45.724;21.276;2022-07-21T05:32:16;11.60;;;3.50;;
46407;SDS011;32110;45.724;21.276;2022-07-21T05:34:41;15.35;;;3.90;;
46407;SDS011;32110;45.724;21.276;2022-07-21T05:37:07;14.25;;;3.42;;
46407;SDS011;32110;45.724;21.276;2022-07-21T05:39:32;13.40;;;3.33;;
46407;SDS011;32110;45.724;21.276;2022-07-21T05:41:58;9.68;;;3.50;;
46407;SDS011;32110;45.724;21.276;2022-07-21T05:44:23;7.90;;;3.42;;
46407;SDS011;32110;45.724;21.276;2022-07-21T05:46:49;13.60;;;3.35;;
46407;SDS011;32110;45.724;21.276;2022-07-21T05:49:14;15.68;;;3.60;;
46407;SDS011;32110;45.724;21.276;2022-07-21T05:51:39;13.05;;;3.70;;
46407;SDS011;32110;45.724;21.276;2022-07-21T05:54:05;16.35;;;3.53;;
46407;SDS011;32110;45.724;21.276;2022-07-21T05:56:30;12.27;;;3.47;;
46407;SDS011;32110;45.724;21.276;2022-07-21T05:58:56;8.00;;;3.30;;
46407;SDS011;32110;45.724;21.276;2022-07-21T06:01:21;10.55;;;3.25;;
46407;SDS011;32110;45.724;21.276;2022-07-21T06:03:50;15.30;;;3.90;;
46407;SDS011;32110;45.724;21.276;2022-07-21T06:06:17;14.00;;;3.38;;
46407;SDS011;32110;45.724;21.276;2022-07-21T06:08:45;15.80;;;3.47;;
46407;SDS011;32110;45.724;21.276;2022-07-21T06:11:12;22.65;;;4.03;;
46407;SDS011;32110;45.724;21.276;2022-07-21T06:13:40;22.88;;;3.70;;
46407;SDS011;32110;45.724;21.276;2022-07-21T06:16:06;18.10;;;3.40;;
46407;SDS011;32110;45.724;21.276;2022-07-21T06:18:32;12.52;;;3.50;;
46407;SDS011;32110;45.724;21.276;2022-07-21T06:20:58;12.90;;;3.65;;
46407;SDS011;32110;45.724;21.276;2022-07-21T06:23:23;12.10;;;4.05;;
46407;SDS011;32110;45.724;21.276;2022-07-21T06:25:50;9.35;;;3.30;;
46407;SDS011;32110;45.724;21.276;2022-07-21T06:28:16;8.38;;;3.42;;
46407;SDS011;32110;45.724;21.276;2022-07-21T06:30:41;11.75;;;3.55;;
46407;SDS011;32110;45.724;21.276;2022-07-21T06:33:07;6.75;;;3.13;;
46407;SDS011;32110;45.724;21.276;2022-07-21T06:35:32;8.27;;;3.35;;
46407;SDS011;32110;45.724;21.276;2022-07-21T06:37:58;9.07;;;3.42;;
46407;SDS011;32110;45.724;21.276;2022-07-21T06:40:23;6.65;;;3.22;;
46407;SDS011;32110;45.724;21.276;2022-07-21T06:42:49;6.55;;;3.00;;
46407;SDS011;32110;45.724;21.276;2022-07-21T06:45:14;12.73;;;3.75;;
46407;SDS011;32110;45.724;21.276;2022-07-21T06:47:40;11.43;;;2.97;;
46407;SDS011;32110;45.724;21.276;2022-07-21T06:50:06;9.55;;;3.05;;
46407;SDS011;32110;45.724;21.276;2022-07-21T06:52:32;5.93;;;3.35;;
46407;SDS011;32110;45.724;21.276;2022-07-21T06:54:59;10.25;;;3.30;;
46407;SDS011;32110;45.724;21.276;2022-07-21T06:57:24;13.10;;;3.10;;
46407;SDS011;32110;45.724;21.276;2022-07-21T06:59:50;9.93;;;3.40;;
46407;SDS011;32110;45.724;21.276;2022-07-21T07:02:15;12.60;;;3.40;;
46407;SDS011;32110;45.724;21.276;2022-07-21T07:04:41;16.55;;;3.45;;
46407;SDS011;32110;45.724;21.276;2022-07-21T07:07:08;5.35;;;3.05;;
46407;SDS011;32110;45.724;21.276;2022-07-21T07:09:34;13.40;;;3.40;;
46407;SDS011;32110;45.724;21.276;2022-07-21T07:11:59;13.23;;;2.97;;
46407;SDS011;32110;45.724;21.276;2022-07-21T07:16:58;7.95;;;3.25;;
46407;SDS011;32110;45.724;21.276;2022-07-21T07:19:23;5.80;;;2.92;;
46407;SDS011;32110;45.724;21.276;2022-07-21T07:21:49;9.20;;;3.05;;
46407;SDS011;32110;45.724;21.276;2022-07-21T07:24:15;9.00;;;3.25;;
46407;SDS011;32110;45.724;21.276;2022-07-21T07:26:40;9.18;;;3.33;;
46407;SDS011;32110;45.724;21.276;2022-07-21T07:29:06;7.40;;;3.80;;
46407;SDS011;32110;45.724;21.276;2022-07-21T07:31:31;5.10;;;3.25;;
46407;SDS011;32110;45.724;21.276;2022-07-21T07:33:57;9.05;;;3.25;;
46407;SDS011;32110;45.724;21.276;2022-07-21T07:36:23;13.85;;;3.50;;
46407;SDS011;32110;45.724;21.276;2022-07-21T07:38:50;6.93;;;3.22;;
46407;SDS011;32110;45.724;21.276;2022-07-21T07:41:16;9.50;;;3.65;;
46407;SDS011;32110;45.724;21.276;2022-07-21T07:43:42;18.33;;;3.38;;
46407;SDS011;32110;45.724;21.276;2022-07-21T07:46:08;13.30;;;3.58;;
46407;SDS011;32110;45.724;21.276;2022-07-21T07:48:35;10.90;;;3.22;;
46407;SDS011;32110;45.724;21.276;2022-07-21T07:51:01;5.55;;;3.42;;
46407;SDS011;32110;45.724;21.276;2022-07-21T07:53:27;7.68;;;3.33;;
46407;SDS011;32110;45.724;21.276;2022-07-21T07:55:52;13.57;;;3.08;;
46407;SDS011;32110;45.724;21.276;2022-07-21T07:58:18;6.30;;;3.30;;
46407;SDS011;32110;45.724;21.276;2022-07-21T08:00:43;9.35;;;3.40;;
46407;SDS011;32110;45.724;21.276;2022-07-21T08:03:08;6.15;;;3.28;;
46407;SDS011;32110;45.724;21.276;2022-07-21T08:05:34;7.45;;;3.60;;
46407;SDS011;32110;45.724;21.276;2022-07-21T08:07:59;9.32;;;3.33;;
46407;SDS011;32110;45.724;21.276;2022-07-21T08:10:25;5.45;;;3.22;;
46407;SDS011;32110;45.724;21.276;2022-07-21T08:12:50;5.18;;;2.85;;
46407;SDS011;32110;45.724;21.276;2022-07-21T08:15:15;6.55;;;3.17;;
46407;SDS011;32110;45.724;21.276;2022-07-21T08:17:41;8.07;;;3.00;;
46407;SDS011;32110;45.724;21.276;2022-07-21T08:20:07;6.93;;;3.25;;
46407;SDS011;32110;45.724;21.276;2022-07-21T08:22:33;7.07;;;2.88;;
46407;SDS011;32110;45.724;21.276;2022-07-21T08:24:58;5.25;;;2.22;;
46407;SDS011;32110;45.724;21.276;2022-07-21T08:27:23;2.72;;;1.70;;
46407;SDS011;32110;45.724;21.276;2022-07-21T08:29:49;5.65;;;2.47;;
46407;SDS011;32110;45.724;21.276;2022-07-21T08:32:15;2.92;;;2.38;;
46407;SDS011;32110;45.724;21.276;2022-07-21T08:34:43;5.80;;;2.10;;
46407;SDS011;32110;45.724;21.276;2022-07-21T08:37:09;4.05;;;2.05;;
46407;SDS011;32110;45.724;21.276;2022-07-21T08:39:34;4.60;;;2.20;;
46407;SDS011;32110;45.724;21.276;2022-07-21T08:42:00;5.78;;;2.20;;
46407;SDS011;32110;45.724;21.276;2022-07-21T08:44:26;4.38;;;2.10;;
46407;SDS011;32110;45.724;21.276;2022-07-21T08:46:52;3.88;;;2.30;;
46407;SDS011;32110;45.724;21.276;2022-07-21T08:49:21;3.17;;;1.73;;
46407;SDS011;32110;45.724;21.276;2022-07-21T08:51:47;3.63;;;2.20;;
46407;SDS011;32110;45.724;21.276;2022-07-21T08:54:13;6.07;;;2.80;;
46407;SDS011;32110;45.724;21.276;2022-07-21T08:56:39;5.93;;;2.30;;
46407;SDS011;32110;45.724;21.276;2022-07-21T08:59:04;4.22;;;2.20;;
46407;SDS011;32110;45.724;21.276;2022-07-21T09:01:30;4.50;;;2.30;;
46407;SDS011;32110;45.724;21.276;2022-07-21T09:04:00;5.07;;;2.15;;
46407;SDS011;32110;45.724;21.276;2022-07-21T09:06:49;5.68;;;2.03;;
46407;SDS011;32110;45.724;21.276;2022-07-21T09:09:18;7.93;;;1.90;;
46407;SDS011;32110;45.724;21.276;2022-07-21T09:11:45;3.30;;;1.98;;
46407;SDS011;32110;45.724;21.276;2022-07-21T09:14:15;5.43;;;1.88;;
46407;SDS011;32110;45.724;21.276;2022-07-21T09:16:47;5.15;;;2.10;;
46407;SDS011;32110;45.724;21.276;2022-07-21T09:19:25;6.45;;;2.30;;
46407;SDS011;32110;45.724;21.276;2022-07-21T09:22:01;5.50;;;1.98;;
46407;SDS011;32110;45.724;21.276;2022-07-21T09:24:35;7.68;;;2.25;;
46407;SDS011;32110;45.724;21.276;2022-07-21T09:27:07;6.22;;;2.10;;
46407;SDS011;32110;45.724;21.276;2022-07-21T09:32:20;3.97;;;2.10;;
46407;SDS011;32110;45.724;21.276;2022-07-21T09:34:46;8.45;;;2.53;;
46407;SDS011;32110;45.724;21.276;2022-07-21T09:37:17;5.57;;;2.53;;
46407;SDS011;32110;45.724;21.276;2022-07-21T09:39:45;6.93;;;2.30;;
46407;SDS011;32110;45.724;21.276;2022-07-21T09:42:17;4.82;;;2.60;;
46407;SDS011;32110;45.724;21.276;2022-07-21T09:45:10;6.75;;;2.70;;
46407;SDS011;32110;45.724;21.276;2022-07-21T09:47:40;4.80;;;2.42;;
46407;SDS011;32110;45.724;21.276;2022-07-21T09:50:07;5.82;;;2.47;;
46407;SDS011;32110;45.724;21.276;2022-07-21T09:52:35;9.63;;;2.50;;
46407;SDS011;32110;45.724;21.276;2022-07-21T09:55:02;7.13;;;2.88;;
46407;SDS011;32110;45.724;21.276;2022-07-21T09:57:29;4.80;;;3.15;;
46407;SDS011;32110;45.724;21.276;2022-07-21T09:59:55;7.85;;;2.53;;
46407;SDS011;32110;45.724;21.276;2022-07-21T10:02:30;11.23;;;2.85;;
46407;SDS011;32110;45.724;21.276;2022-07-21T10:05:05;7.28;;;2.75;;
46407;SDS011;32110;45.724;21.276;2022-07-21T10:07:33;3.45;;;2.63;;
46407;SDS011;32110;45.724;21.276;2022-07-21T10:10:02;2.92;;;2.53;;
46407;SDS011;32110;45.724;21.276;2022-07-21T10:12:28;5.53;;;2.10;;
46407;SDS011;32110;45.724;21.276;2022-07-21T10:14:54;9.73;;;2.50;;
46407;SDS011;32110;45.724;21.276;2022-07-21T10:17:20;6.20;;;2.53;;
46407;SDS011;32110;45.724;21.276;2022-07-21T10:19:57;8.13;;;2.58;;
46407;SDS011;32110;45.724;21.276;2022-07-21T10:25:16;7.82;;;2.60;;
46407;SDS011;32110;45.724;21.276;2022-07-21T10:30:46;10.70;;;3.03;;
46407;SDS011;32110;45.724;21.276;2022-07-21T10:33:14;7.38;;;2.10;;
46407;SDS011;32110;45.724;21.276;2022-07-21T10:35:41;9.43;;;2.58;;
46407;SDS011;32110;45.724;21.276;2022-07-21T10:38:24;4.88;;;2.30;;
46407;SDS011;32110;45.724;21.276;2022-07-21T10:41:01;8.52;;;2.53;;
46407;SDS011;32110;45.724;21.276;2022-07-21T10:45:53;8.17;;;2.67;;
46407;SDS011;32110;45.724;21.276;2022-07-21T10:51:12;7.50;;;2.30;;
46407;SDS011;32110;45.724;21.276;2022-07-21T10:53:40;5.50;;;2.70;;
46407;SDS011;32110;45.724;21.276;2022-07-21T10:56:06;5.90;;;2.33;;
46407;SDS011;32110;45.724;21.276;2022-07-21T10:58:33;9.82;;;2.08;;
46407;SDS011;32110;45.724;21.276;2022-07-21T11:03:39;16.83;;;2.95;;
46407;SDS011;32110;45.724;21.276;2022-07-21T11:08:34;8.10;;;2.90;;
46407;SDS011;32110;45.724;21.276;2022-07-21T11:11:34;11.95;;;2.55;;
46407;SDS011;32110;45.724;21.276;2022-07-21T11:14:08;11.43;;;2.53;;
46407;SDS011;32110;45.724;21.276;2022-07-21T11:22:18;6.03;;;2.35;;
46407;SDS011;32110;45.724;21.276;2022-07-21T11:27:15;7.60;;;2.72;;
46407;SDS011;32110;45.724;21.276;2022-07-21T11:29:43;7.15;;;2.55;;
46407;SDS011;32110;45.724;21.276;2022-07-21T11:32:10;9.95;;;2.35;;
46407;SDS011;32110;45.724;21.276;2022-07-21T11:37:09;10.02;;;2.63;;
46407;SDS011;32110;45.724;21.276;2022-07-21T11:39:35;6.00;;;2.60;;
46407;SDS011;32110;45.724;21.276;2022-07-21T11:42:08;10.32;;;2.65;;
46407;SDS011;32110;45.724;21.276;2022-07-21T11:44:37;8.45;;;2.88;;
46407;SDS011;32110;45.724;21.276;2022-07-21T11:47:03;5.38;;;2.35;;
46407;SDS011;32110;45.724;21.276;2022-07-21T11:49:30;10.60;;;2.63;;
46407;SDS011;32110;45.724;21.276;2022-07-21T11:52:01;9.27;;;2.65;;
46407;SDS011;32110;45.724;21.276;2022-07-21T11:54:30;10.68;;;3.20;;
46407;SDS011;32110;45.724;21.276;2022-07-21T11:56:58;5.95;;;2.80;;
46407;SDS011;32110;45.724;21.276;2022-07-21T11:59:25;11.55;;;2.80;;
46407;SDS011;32110;45.724;21.276;2022-07-21T12:04:33;9.50;;;2.72;;
46407;SDS011;32110;45.724;21.276;2022-07-21T12:07:07;7.60;;;2.58;;
46407;SDS011;32110;45.724;21.276;2022-07-21T12:09:36;7.35;;;2.55;;
46407;SDS011;32110;45.724;21.276;2022-07-21T12:12:03;10.82;;;2.95;;
46407;SDS011;32110;45.724;21.276;2022-07-21T12:15:12;6.78;;;2.60;;
46407;SDS011;32110;45.724;21.276;2022-07-21T12:19:56;7.53;;;2.83;;
46407;SDS011;32110;45.724;21.276;2022-07-21T12:25:02;11.07;;;2.72;;
46407;SDS011;32110;45.724;21.276;2022-07-21T12:27:28;6.80;;;2.40;;
46407;SDS011;32110;45.724;21.276;2022-07-21T12:29:56;8.13;;;2.80;;
46407;SDS011;32110;45.724;21.276;2022-07-21T12:38:10;9.93;;;2.55;;
46407;SDS011;32110;45.724;21.276;2022-07-21T12:40:39;5.93;;;2.38;;
46407;SDS011;32110;45.724;21.276;2022-07-21T12:43:10;12.93;;;3.00;;
46407;SDS011;32110;45.724;21.276;2022-07-21T12:45:46;7.13;;;2.78;;
46407;SDS011;32110;45.724;21.276;2022-07-21T12:48:14;7.20;;;2.97;;
46407;SDS011;32110;45.724;21.276;2022-07-21T12:50:42;5.80;;;2.70;;
46407;SDS011;32110;45.724;21.276;2022-07-21T12:53:21;10.18;;;2.85;;
46407;SDS011;32110;45.724;21.276;2022-07-21T12:55:46;8.85;;;2.80;;
46407;SDS011;32110;45.724;21.276;2022-07-21T12:58:12;15.30;;;2.78;;
46407;SDS011;32110;45.724;21.276;2022-07-21T13:00:37;6.22;;;2.40;;
46407;SDS011;32110;45.724;21.276;2022-07-21T13:03:02;7.93;;;2.70;;
46407;SDS011;32110;45.724;21.276;2022-07-21T13:05:28;8.50;;;2.70;;
46407;SDS011;32110;45.724;21.276;2022-07-21T13:07:53;8.50;;;2.63;;
46407;SDS011;32110;45.724;21.276;2022-07-21T13:10:19;6.97;;;3.10;;
46407;SDS011;32110;45.724;21.276;2022-07-21T13:12:45;9.45;;;2.70;;
46407;SDS011;32110;45.724;21.276;2022-07-21T13:15:11;13.73;;;2.72;;
46407;SDS011;32110;45.724;21.276;2022-07-21T13:17:36;21.92;;;3.25;;
46407;SDS011;32110;45.724;21.276;2022-07-21T13:20:02;6.55;;;2.70;;
46407;SDS011;32110;45.724;21.276;2022-07-21T13:22:28;8.32;;;2.60;;
46407;SDS011;32110;45.724;21.276;2022-07-21T13:24:54;10.70;;;3.10;;
46407;SDS011;32110;45.724;21.276;2022-07-21T13:27:20;6.30;;;2.60;;
46407;SDS011;32110;45.724;21.276;2022-07-21T13:29:45;5.32;;;2.53;;
46407;SDS011;32110;45.724;21.276;2022-07-21T13:32:11;7.82;;;2.38;;
46407;SDS011;32110;45.724;21.276;2022-07-21T13:34:36;7.18;;;2.92;;
46407;SDS011;32110;45.724;21.276;2022-07-21T13:37:02;9.80;;;2.63;;
46407;SDS011;32110;45.724;21.276;2022-07-21T13:39:27;7.18;;;2.53;;
46407;SDS011;32110;45.724;21.276;2022-07-21T13:41:54;7.28;;;2.28;;
46407;SDS011;32110;45.724;21.276;2022-07-21T13:44:20;6.97;;;2.85;;
46407;SDS011;32110;45.724;21.276;2022-07-21T13:46:45;6.63;;;2.72;;
46407;SDS011;32110;45.724;21.276;2022-07-21T13:49:11;6.80;;;2.60;;
46407;SDS011;32110;45.724;21.276;2022-07-21T13:51:36;8.45;;;2.65;;
46407;SDS011;32110;45.724;21.276;2022-07-21T13:54:02;10.77;;;3.00;;
46407;SDS011;32110;45.724;21.276;2022-07-21T13:56:28;7.13;;;3.22;;
46407;SDS011;32110;45.724;21.276;2022-07-21T13:58:53;14.18;;;3.33;;
46407;SDS011;32110;45.724;21.276;2022-07-21T14:01:19;7.20;;;2.53;;
46407;SDS011;32110;45.724;21.276;2022-07-21T14:03:45;4.45;;;2.40;;
46407;SDS011;32110;45.724;21.276;2022-07-21T14:06:12;4.25;;;2.92;;
46407;SDS011;32110;45.724;21.276;2022-07-21T14:08:38;6.28;;;2.83;;
46407;SDS011;32110;45.724;21.276;2022-07-21T14:11:04;8.52;;;3.25;;
46407;SDS011;32110;45.724;21.276;2022-07-21T14:13:31;5.45;;;2.53;;
46407;SDS011;32110;45.724;21.276;2022-07-21T14:15:56;10.23;;;2.63;;
46407;SDS011;32110;45.724;21.276;2022-07-21T14:18:22;9.15;;;3.10;;
46407;SDS011;32110;45.724;21.276;2022-07-21T14:20:47;7.88;;;2.58;;
46407;SDS011;32110;45.724;21.276;2022-07-21T14:23:17;6.47;;;2.75;;
46407;SDS011;32110;45.724;21.276;2022-07-21T14:25:46;9.00;;;2.70;;
46407;SDS011;32110;45.724;21.276;2022-07-21T14:28:12;7.00;;;3.10;;
46407;SDS011;32110;45.724;21.276;2022-07-21T14:30:37;6.57;;;2.70;;
46407;SDS011;32110;45.724;21.276;2022-07-21T14:33:03;8.10;;;2.70;;
46407;SDS011;32110;45.724;21.276;2022-07-21T14:35:28;8.10;;;2.70;;
46407;SDS011;32110;45.724;21.276;2022-07-21T14:37:54;7.47;;;2.45;;
46407;SDS011;32110;45.724;21.276;2022-07-21T14:40:19;5.63;;;3.00;;
46407;SDS011;32110;45.724;21.276;2022-07-21T14:42:45;7.75;;;2.60;;
46407;SDS011;32110;45.724;21.276;2022-07-21T14:45:12;6.32;;;2.72;;
46407;SDS011;32110;45.724;21.276;2022-07-21T14:47:39;9.00;;;2.53;;
46407;SDS011;32110;45.724;21.276;2022-07-21T14:50:04;6.97;;;2.60;;
46407;SDS011;32110;45.724;21.276;2022-07-21T14:52:30;5.15;;;2.88;;
46407;SDS011;32110;45.724;21.276;2022-07-21T14:54:55;6.55;;;2.60;;
46407;SDS011;32110;45.724;21.276;2022-07-21T14:57:21;7.53;;;2.60;;
46407;SDS011;32110;45.724;21.276;2022-07-21T14:59:46;6.32;;;3.17;;
46407;SDS011;32110;45.724;21.276;2022-07-21T15:02:11;15.20;;;2.85;;
46407;SDS011;32110;45.724;21.276;2022-07-21T15:04:37;9.18;;;2.53;;
46407;SDS011;32110;45.724;21.276;2022-07-21T15:07:03;5.68;;;2.65;;
46407;SDS011;32110;45.724;21.276;2022-07-21T15:09:28;6.53;;;3.20;;
46407;SDS011;32110;45.724;21.276;2022-07-21T15:11:54;6.82;;;2.80;;